sensor_id;sensor_type;location;lat;lon;timestamp;pressure;altitude;pressure_sealevel;temperature;humidity
76229;BME280;65021;53.174;18.160;2023-08-06T00:00:29;100305.08;;;15.28;100.00
76229;BME280;65021;53.174;18.160;2023-08-06T00:03:15;100301.79;;;15.26;100.00
76229;BME280;65021;53.174;18.160;2023-08-06T00:05:42;100287.08;;;15.23;100.00
76229;BME280;65021;53.174;18.160;2023-08-06T00:08:09;100275.77;;;15.22;100.00
76229;BME280;65021;53.174;18.160;2023-08-06T00:10:36;100262.75;;;15.20;100.00
76229;BME280;65021;53.174;18.160;2023-08-06T00:13:02;100265.59;;;15.19;100.00
76229;BME280;65021;53.174;18.160;2023-08-06T00:15:29;100251.55;;;15.17;100.00
76229;BME280;65021;53.174;18.160;2023-08-06T00:17:55;100248.89;;;15.16;100.00
76229;BME280;65021;53.174;18.160;2023-08-06T00:20:22;100235.06;;;15.14;100.00
76229;BME280;65021;53.174;18.160;2023-08-06T00:22:48;100239.73;;;15.12;100.00
76229;BME280;65021;53.174;18.160;2023-08-06T00:25:15;100241.08;;;15.10;100.00
76229;BME280;65021;53.174;18.160;2023-08-06T00:27:42;100246.39;;;15.09;100.00
76229;BME280;65021;53.174;18.160;2023-08-06T00:30:08;100239.52;;;15.09;100.00
76229;BME280;65021;53.174;18.160;2023-08-06T00:32:35;100230.84;;;15.08;100.00
76229;BME280;65021;53.174;18.160;2023-08-06T00:35:02;100221.54;;;15.08;100.00
76229;BME280;65021;53.174;18.160;2023-08-06T00:37:29;100212.02;;;15.08;100.00
76229;BME280;65021;53.174;18.160;2023-08-06T00:39:56;100205.30;;;15.08;100.00
76229;BME280;65021;53.174;18.160;2023-08-06T00:42:22;100196.86;;;15.08;100.00
76229;BME280;65021;53.174;18.160;2023-08-06T00:44:49;100196.08;;;15.07;100.00
76229;BME280;65021;53.174;18.160;2023-08-06T00:47:15;100196.13;;;15.06;100.00
76229;BME280;65021;53.174;18.160;2023-08-06T00:49:42;100194.13;;;15.05;100.00
76229;BME280;65021;53.174;18.160;2023-08-06T00:52:09;100193.30;;;15.04;100.00
76229;BME280;65021;53.174;18.160;2023-08-06T00:54:36;100185.52;;;15.04;100.00
76229;BME280;65021;53.174;18.160;2023-08-06T00:57:04;100173.98;;;15.04;100.00
76229;BME280;65021;53.174;18.160;2023-08-06T00:59:33;100165.55;;;15.03;100.00
76229;BME280;65021;53.174;18.160;2023-08-06T01:02:00;100158.89;;;15.03;100.00
76229;BME280;65021;53.174;18.160;2023-08-06T01:04:27;100163.20;;;15.03;100.00
76229;BME280;65021;53.174;18.160;2023-08-06T01:17:26;100133.55;;;14.99;100.00
76229;BME280;65021;53.174;18.160;2023-08-06T01:19:53;100124.78;;;14.98;100.00
76229;BME280;65021;53.174;18.160;2023-08-06T01:22:19;100112.35;;;14.98;100.00
76229;BME280;65021;53.174;18.160;2023-08-06T01:24:48;100105.69;;;14.97;100.00
76229;BME280;65021;53.174;18.160;2023-08-06T01:27:47;100094.33;;;14.97;100.00
76229;BME280;65021;53.174;18.160;2023-08-06T01:30:26;100083.86;;;14.97;100.00
76229;BME280;65021;53.174;18.160;2023-08-06T01:32:58;100072.51;;;14.96;100.00
76229;BME280;65021;53.174;18.160;2023-08-06T01:35:26;100068.48;;;14.97;100.00
76229;BME280;65021;53.174;18.160;2023-08-06T01:37:53;100055.42;;;14.98;100.00
76229;BME280;65021;53.174;18.160;2023-08-06T01:40:22;100039.41;;;14.98;100.00
76229;BME280;65021;53.174;18.160;2023-08-06T01:42:48;100023.21;;;14.99;100.00
76229;BME280;65021;53.174;18.160;2023-08-06T01:45:15;100011.52;;;15.00;100.00
76229;BME280;65021;53.174;18.160;2023-08-06T01:47:42;100008.05;;;15.00;100.00
76229;BME280;65021;53.174;18.160;2023-08-06T01:50:09;100013.74;;;15.01;100.00
76229;BME280;65021;53.174;18.160;2023-08-06T01:52:35;100015.09;;;15.01;100.00
76229;BME280;65021;53.174;18.160;2023-08-06T01:55:02;100016.78;;;15.01;100.00
76229;BME280;65021;53.174;18.160;2023-08-06T01:57:29;100009.27;;;15.01;100.00
76229;BME280;65021;53.174;18.160;2023-08-06T01:59:55;100003.05;;;15.01;100.00
76229;BME280;65021;53.174;18.160;2023-08-06T02:02:22;99992.24;;;15.02;100.00
76229;BME280;65021;53.174;18.160;2023-08-06T02:04:48;99978.59;;;15.02;100.00
76229;BME280;65021;53.174;18.160;2023-08-06T02:07:15;99965.42;;;15.02;100.00
76229;BME280;65021;53.174;18.160;2023-08-06T02:09:41;99949.42;;;15.02;100.00
76229;BME280;65021;53.174;18.160;2023-08-06T02:12:08;99933.03;;;15.01;100.00
76229;BME280;65021;53.174;18.160;2023-08-06T02:14:35;99919.44;;;15.00;100.00
76229;BME280;65021;53.174;18.160;2023-08-06T02:17:01;99909.54;;;15.01;100.00
76229;BME280;65021;53.174;18.160;2023-08-06T02:19:28;99898.45;;;15.00;100.00
76229;BME280;65021;53.174;18.160;2023-08-06T02:21:54;99896.88;;;15.00;100.00
76229;BME280;65021;53.174;18.160;2023-08-06T02:24:21;99900.58;;;15.00;100.00
76229;BME280;65021;53.174;18.160;2023-08-06T02:26:47;99903.89;;;15.00;100.00
76229;BME280;65021;53.174;18.160;2023-08-06T02:29:17;99904.33;;;15.01;100.00
76229;BME280;65021;53.174;18.160;2023-08-06T02:31:44;99903.77;;;15.00;100.00
76229;BME280;65021;53.174;18.160;2023-08-06T02:34:10;99906.88;;;15.01;100.00
76229;BME280;65021;53.174;18.160;2023-08-06T02:36:37;99921.88;;;15.03;100.00
76229;BME280;65021;53.174;18.160;2023-08-06T02:39:03;99921.17;;;15.06;100.00
76229;BME280;65021;53.174;18.160;2023-08-06T02:41:30;99916.40;;;15.07;100.00
76229;BME280;65021;53.174;18.160;2023-08-06T02:43:56;99904.11;;;15.09;100.00
76229;BME280;65021;53.174;18.160;2023-08-06T02:46:23;99899.11;;;15.11;100.00
76229;BME280;65021;53.174;18.160;2023-08-06T02:48:49;99893.56;;;15.13;100.00
76229;BME280;65021;53.174;18.160;2023-08-06T02:51:16;99898.66;;;15.12;100.00
76229;BME280;65021;53.174;18.160;2023-08-06T02:53:42;99895.51;;;15.13;100.00
76229;BME280;65021;53.174;18.160;2023-08-06T02:56:09;99889.73;;;15.14;100.00
76229;BME280;65021;53.174;18.160;2023-08-06T02:58:35;99894.98;;;15.15;100.00
76229;BME280;65021;53.174;18.160;2023-08-06T03:01:04;99898.10;;;15.16;100.00
76229;BME280;65021;53.174;18.160;2023-08-06T03:03:31;99900.00;;;15.17;100.00
76229;BME280;65021;53.174;18.160;2023-08-06T03:05:58;99895.28;;;15.18;100.00
76229;BME280;65021;53.174;18.160;2023-08-06T03:08:25;99881.77;;;15.21;100.00
76229;BME280;65021;53.174;18.160;2023-08-06T03:10:52;99875.52;;;15.23;100.00
76229;BME280;65021;53.174;18.160;2023-08-06T03:13:19;99865.52;;;15.25;100.00
76229;BME280;65021;53.174;18.160;2023-08-06T03:15:53;99854.36;;;15.27;100.00
76229;BME280;65021;53.174;18.160;2023-08-06T03:18:20;99854.27;;;15.29;100.00
76229;BME280;65021;53.174;18.160;2023-08-06T03:20:48;99855.59;;;15.31;100.00
76229;BME280;65021;53.174;18.160;2023-08-06T03:23:14;99855.55;;;15.34;100.00
76229;BME280;65021;53.174;18.160;2023-08-06T03:25:41;99858.86;;;15.38;100.00
76229;BME280;65021;53.174;18.160;2023-08-06T03:28:08;99855.63;;;15.41;100.00
76229;BME280;65021;53.174;18.160;2023-08-06T03:30:34;99848.09;;;15.44;100.00
76229;BME280;65021;53.174;18.160;2023-08-06T03:33:01;99848.63;;;15.47;100.00
76229;BME280;65021;53.174;18.160;2023-08-06T03:35:27;99852.16;;;15.50;100.00
76229;BME280;65021;53.174;18.160;2023-08-06T03:37:54;99848.54;;;15.53;100.00
76229;BME280;65021;53.174;18.160;2023-08-06T03:40:20;99854.38;;;15.57;100.00
76229;BME280;65021;53.174;18.160;2023-08-06T03:42:47;99842.80;;;15.60;100.00
76229;BME280;65021;53.174;18.160;2023-08-06T03:45:13;99833.23;;;15.63;100.00
76229;BME280;65021;53.174;18.160;2023-08-06T03:47:40;99826.58;;;15.65;100.00
76229;BME280;65021;53.174;18.160;2023-08-06T03:50:07;99817.96;;;15.68;100.00
76229;BME280;65021;53.174;18.160;2023-08-06T03:52:34;99814.29;;;15.71;100.00
76229;BME280;65021;53.174;18.160;2023-08-06T03:55:00;99799.52;;;15.74;100.00
76229;BME280;65021;53.174;18.160;2023-08-06T03:57:27;99788.41;;;15.77;100.00
76229;BME280;65021;53.174;18.160;2023-08-06T03:59:53;99772.47;;;15.79;100.00
76229;BME280;65021;53.174;18.160;2023-08-06T04:02:20;99758.66;;;15.80;100.00
76229;BME280;65021;53.174;18.160;2023-08-06T04:04:46;99738.36;;;15.80;100.00
76229;BME280;65021;53.174;18.160;2023-08-06T04:07:13;99722.60;;;15.82;100.00
76229;BME280;65021;53.174;18.160;2023-08-06T04:09:59;99696.20;;;15.82;100.00
76229;BME280;65021;53.174;18.160;2023-08-06T04:12:27;99662.61;;;15.83;100.00
76229;BME280;65021;53.174;18.160;2023-08-06T04:14:54;99644.62;;;15.83;100.00
76229;BME280;65021;53.174;18.160;2023-08-06T04:17:21;99653.52;;;15.83;100.00
76229;BME280;65021;53.174;18.160;2023-08-06T04:19:52;99669.10;;;15.84;100.00
76229;BME280;65021;53.174;18.160;2023-08-06T04:22:26;99658.46;;;15.86;100.00
76229;BME280;65021;53.174;18.160;2023-08-06T04:24:53;99652.79;;;15.87;100.00
76229;BME280;65021;53.174;18.160;2023-08-06T04:27:19;99656.00;;;15.89;100.00
76229;BME280;65021;53.174;18.160;2023-08-06T04:29:46;99665.48;;;15.91;100.00
76229;BME280;65021;53.174;18.160;2023-08-06T04:32:13;99668.48;;;15.92;100.00
76229;BME280;65021;53.174;18.160;2023-08-06T04:34:39;99677.88;;;15.94;100.00
76229;BME280;65021;53.174;18.160;2023-08-06T04:37:06;99673.73;;;15.97;100.00
76229;BME280;65021;53.174;18.160;2023-08-06T04:39:33;99657.36;;;16.00;100.00
76229;BME280;65021;53.174;18.160;2023-08-06T04:41:59;99657.13;;;16.03;100.00
76229;BME280;65021;53.174;18.160;2023-08-06T04:44:26;99658.84;;;16.07;100.00
76229;BME280;65021;53.174;18.160;2023-08-06T04:46:53;99662.27;;;16.10;100.00
76229;BME280;65021;53.174;18.160;2023-08-06T04:49:23;99655.30;;;16.14;100.00
76229;BME280;65021;53.174;18.160;2023-08-06T04:51:50;99653.60;;;16.17;100.00
76229;BME280;65021;53.174;18.160;2023-08-06T04:54:16;99652.23;;;16.22;100.00
76229;BME280;65021;53.174;18.160;2023-08-06T04:56:43;99654.56;;;16.26;100.00
76229;BME280;65021;53.174;18.160;2023-08-06T04:59:09;99655.66;;;16.29;100.00
76229;BME280;65021;53.174;18.160;2023-08-06T05:01:36;99658.68;;;16.33;100.00
76229;BME280;65021;53.174;18.160;2023-08-06T05:04:03;99651.08;;;16.37;100.00
76229;BME280;65021;53.174;18.160;2023-08-06T05:06:29;99635.14;;;16.43;100.00
76229;BME280;65021;53.174;18.160;2023-08-06T05:08:56;99610.95;;;16.49;100.00
76229;BME280;65021;53.174;18.160;2023-08-06T05:11:22;99591.74;;;16.54;100.00
76229;BME280;65021;53.174;18.160;2023-08-06T05:13:50;99599.17;;;16.58;100.00
76229;BME280;65021;53.174;18.160;2023-08-06T05:16:16;99613.48;;;16.60;100.00
76229;BME280;65021;53.174;18.160;2023-08-06T05:18:43;99609.91;;;16.62;100.00
76229;BME280;65021;53.174;18.160;2023-08-06T05:21:09;99594.75;;;16.65;100.00
76229;BME280;65021;53.174;18.160;2023-08-06T05:23:36;99596.05;;;16.67;100.00
76229;BME280;65021;53.174;18.160;2023-08-06T05:26:03;99612.67;;;16.68;100.00
76229;BME280;65021;53.174;18.160;2023-08-06T05:28:29;99618.54;;;16.70;100.00
76229;BME280;65021;53.174;18.160;2023-08-06T05:30:56;99617.77;;;16.72;100.00
76229;BME280;65021;53.174;18.160;2023-08-06T05:33:22;99617.71;;;16.74;100.00
76229;BME280;65021;53.174;18.160;2023-08-06T05:35:49;99613.57;;;16.76;100.00
76229;BME280;65021;53.174;18.160;2023-08-06T05:38:17;99616.19;;;16.78;100.00
76229;BME280;65021;53.174;18.160;2023-08-06T05:40:43;99615.20;;;16.79;100.00
76229;BME280;65021;53.174;18.160;2023-08-06T05:43:10;99604.90;;;16.82;100.00
76229;BME280;65021;53.174;18.160;2023-08-06T05:45:37;99597.84;;;16.85;100.00
76229;BME280;65021;53.174;18.160;2023-08-06T05:48:03;99592.04;;;16.87;100.00
76229;BME280;65021;53.174;18.160;2023-08-06T05:50:30;99598.95;;;16.92;100.00
76229;BME280;65021;53.174;18.160;2023-08-06T05:52:56;99600.42;;;16.96;100.00
76229;BME280;65021;53.174;18.160;2023-08-06T05:55:23;99600.13;;;16.99;100.00
76229;BME280;65021;53.174;18.160;2023-08-06T05:57:49;99599.02;;;17.04;100.00
76229;BME280;65021;53.174;18.160;2023-08-06T06:00:18;99594.11;;;17.09;100.00
76229;BME280;65021;53.174;18.160;2023-08-06T06:02:45;99599.36;;;17.13;100.00
76229;BME280;65021;53.174;18.160;2023-08-06T06:05:12;99592.58;;;17.16;100.00
76229;BME280;65021;53.174;18.160;2023-08-06T06:07:38;99591.50;;;17.21;100.00
76229;BME280;65021;53.174;18.160;2023-08-06T06:10:05;99586.52;;;17.23;100.00
76229;BME280;65021;53.174;18.160;2023-08-06T06:12:32;99569.09;;;17.25;100.00
76229;BME280;65021;53.174;18.160;2023-08-06T06:14:59;99564.73;;;17.29;100.00
76229;BME280;65021;53.174;18.160;2023-08-06T06:17:28;99561.20;;;17.31;100.00
76229;BME280;65021;53.174;18.160;2023-08-06T06:19:55;99562.33;;;17.35;100.00
76229;BME280;65021;53.174;18.160;2023-08-06T06:22:22;99563.95;;;17.37;100.00
76229;BME280;65021;53.174;18.160;2023-08-06T06:24:48;99556.75;;;17.38;100.00
76229;BME280;65021;53.174;18.160;2023-08-06T06:27:15;99548.64;;;17.41;100.00
76229;BME280;65021;53.174;18.160;2023-08-06T06:29:41;99546.27;;;17.47;100.00
76229;BME280;65021;53.174;18.160;2023-08-06T06:32:08;99541.73;;;17.51;100.00
76229;BME280;65021;53.174;18.160;2023-08-06T06:34:34;99538.48;;;17.54;100.00
76229;BME280;65021;53.174;18.160;2023-08-06T06:37:01;99526.95;;;17.56;100.00
76229;BME280;65021;53.174;18.160;2023-08-06T06:39:27;99521.36;;;17.60;100.00
76229;BME280;65021;53.174;18.160;2023-08-06T06:41:54;99521.75;;;17.66;100.00
76229;BME280;65021;53.174;18.160;2023-08-06T06:44:21;99512.43;;;17.74;100.00
76229;BME280;65021;53.174;18.160;2023-08-06T06:46:47;99508.58;;;17.79;100.00
76229;BME280;65021;53.174;18.160;2023-08-06T06:49:13;99509.56;;;17.84;100.00
76229;BME280;65021;53.174;18.160;2023-08-06T06:51:40;99502.87;;;17.89;100.00
76229;BME280;65021;53.174;18.160;2023-08-06T06:54:07;99508.30;;;17.94;100.00
76229;BME280;65021;53.174;18.160;2023-08-06T06:56:34;99511.42;;;17.97;100.00
76229;BME280;65021;53.174;18.160;2023-08-06T06:59:00;99510.64;;;17.98;100.00
76229;BME280;65021;53.174;18.160;2023-08-06T07:01:27;99506.05;;;18.00;100.00
76229;BME280;65021;53.174;18.160;2023-08-06T07:03:53;99498.55;;;18.04;100.00
76229;BME280;65021;53.174;18.160;2023-08-06T07:06:20;99492.45;;;18.09;100.00
76229;BME280;65021;53.174;18.160;2023-08-06T07:08:47;99490.58;;;18.15;100.00
76229;BME280;65021;53.174;18.160;2023-08-06T07:11:13;99487.52;;;18.19;100.00
76229;BME280;65021;53.174;18.160;2023-08-06T07:13:40;99486.50;;;18.23;100.00
76229;BME280;65021;53.174;18.160;2023-08-06T07:16:06;99482.46;;;18.25;100.00
76229;BME280;65021;53.174;18.160;2023-08-06T07:18:33;99478.92;;;18.28;100.00
76229;BME280;65021;53.174;18.160;2023-08-06T07:20:59;99477.08;;;18.30;100.00
76229;BME280;65021;53.174;18.160;2023-08-06T07:23:26;99479.42;;;18.30;100.00
76229;BME280;65021;53.174;18.160;2023-08-06T07:25:53;99482.74;;;18.33;100.00
76229;BME280;65021;53.174;18.160;2023-08-06T07:28:22;99477.48;;;18.33;100.00
76229;BME280;65021;53.174;18.160;2023-08-06T07:30:50;99473.90;;;18.34;100.00
76229;BME280;65021;53.174;18.160;2023-08-06T07:33:17;99463.34;;;18.37;100.00
76229;BME280;65021;53.174;18.160;2023-08-06T07:35:44;99452.86;;;18.41;100.00
76229;BME280;65021;53.174;18.160;2023-08-06T07:38:13;99448.88;;;18.47;100.00
76229;BME280;65021;53.174;18.160;2023-08-06T07:40:40;99449.32;;;18.50;100.00
76229;BME280;65021;53.174;18.160;2023-08-06T07:43:06;99438.23;;;18.56;100.00
76229;BME280;65021;53.174;18.160;2023-08-06T07:45:37;99428.17;;;18.62;100.00
76229;BME280;65021;53.174;18.160;2023-08-06T07:48:04;99413.86;;;18.69;100.00
76229;BME280;65021;53.174;18.160;2023-08-06T07:50:33;99417.39;;;18.79;100.00
76229;BME280;65021;53.174;18.160;2023-08-06T07:53:00;99421.32;;;18.83;100.00
76229;BME280;65021;53.174;18.160;2023-08-06T07:55:26;99415.30;;;18.81;100.00
76229;BME280;65021;53.174;18.160;2023-08-06T07:57:53;99419.52;;;18.80;100.00
76229;BME280;65021;53.174;18.160;2023-08-06T08:00:20;99418.48;;;18.76;100.00
76229;BME280;65021;53.174;18.160;2023-08-06T08:02:47;99409.60;;;18.75;100.00
76229;BME280;65021;53.174;18.160;2023-08-06T08:05:13;99408.35;;;18.79;100.00
76229;BME280;65021;53.174;18.160;2023-08-06T08:07:40;99398.52;;;18.82;100.00
76229;BME280;65021;53.174;18.160;2023-08-06T08:10:07;99392.47;;;18.85;100.00
76229;BME280;65021;53.174;18.160;2023-08-06T08:12:34;99400.73;;;18.90;100.00
76229;BME280;65021;53.174;18.160;2023-08-06T08:15:00;99403.63;;;18.88;100.00
76229;BME280;65021;53.174;18.160;2023-08-06T08:17:27;99402.70;;;18.86;100.00
76229;BME280;65021;53.174;18.160;2023-08-06T08:19:54;99397.61;;;18.83;100.00
76229;BME280;65021;53.174;18.160;2023-08-06T08:22:20;99392.01;;;18.85;100.00
76229;BME280;65021;53.174;18.160;2023-08-06T08:24:47;99388.25;;;18.88;100.00
76229;BME280;65021;53.174;18.160;2023-08-06T08:27:14;99380.66;;;18.89;100.00
76229;BME280;65021;53.174;18.160;2023-08-06T08:29:40;99376.48;;;18.99;100.00
76229;BME280;65021;53.174;18.160;2023-08-06T08:32:07;99373.55;;;19.09;100.00
76229;BME280;65021;53.174;18.160;2023-08-06T08:34:33;99370.04;;;19.13;100.00
76229;BME280;65021;53.174;18.160;2023-08-06T08:37:00;99370.98;;;19.15;100.00
76229;BME280;65021;53.174;18.160;2023-08-06T08:39:27;99364.85;;;19.14;100.00
76229;BME280;65021;53.174;18.160;2023-08-06T08:41:53;99355.00;;;19.19;100.00
76229;BME280;65021;53.174;18.160;2023-08-06T08:44:20;99353.23;;;19.23;100.00
76229;BME280;65021;53.174;18.160;2023-08-06T08:46:47;99347.50;;;19.22;100.00
76229;BME280;65021;53.174;18.160;2023-08-06T08:49:14;99338.36;;;19.25;100.00
76229;BME280;65021;53.174;18.160;2023-08-06T08:51:44;99333.55;;;19.29;100.00
76229;BME280;65021;53.174;18.160;2023-08-06T08:54:13;99330.20;;;19.30;100.00
76229;BME280;65021;53.174;18.160;2023-08-06T08:56:40;99332.69;;;19.28;100.00
76229;BME280;65021;53.174;18.160;2023-08-06T08:59:07;99330.81;;;19.25;100.00
76229;BME280;65021;53.174;18.160;2023-08-06T09:01:34;99329.43;;;19.23;100.00
76229;BME280;65021;53.174;18.160;2023-08-06T09:04:01;99330.23;;;19.21;100.00
76229;BME280;65021;53.174;18.160;2023-08-06T09:06:29;99324.98;;;19.19;100.00
76229;BME280;65021;53.174;18.160;2023-08-06T09:09:01;99314.24;;;19.22;100.00
76229;BME280;65021;53.174;18.160;2023-08-06T09:11:37;99304.09;;;19.26;100.00
76229;BME280;65021;53.174;18.160;2023-08-06T09:14:07;99312.45;;;19.25;100.00
76229;BME280;65021;53.174;18.160;2023-08-06T09:16:37;99306.13;;;19.26;100.00
76229;BME280;65021;53.174;18.160;2023-08-06T09:19:11;99300.21;;;19.21;100.00
76229;BME280;65021;53.174;18.160;2023-08-06T09:21:48;99298.73;;;19.19;100.00
76229;BME280;65021;53.174;18.160;2023-08-06T09:24:17;99304.25;;;19.14;100.00
76229;BME280;65021;53.174;18.160;2023-08-06T09:26:44;99302.82;;;19.13;100.00
76229;BME280;65021;53.174;18.160;2023-08-06T09:29:11;99298.87;;;19.15;100.00
76229;BME280;65021;53.174;18.160;2023-08-06T09:31:46;99289.13;;;19.16;100.00
76229;BME280;65021;53.174;18.160;2023-08-06T09:34:16;99286.29;;;19.20;100.00
76229;BME280;65021;53.174;18.160;2023-08-06T09:36:49;99279.78;;;19.24;100.00
76229;BME280;65021;53.174;18.160;2023-08-06T09:39:19;99276.38;;;19.33;100.00
76229;BME280;65021;53.174;18.160;2023-08-06T09:41:47;99277.46;;;19.40;100.00
76229;BME280;65021;53.174;18.160;2023-08-06T09:44:18;99274.34;;;19.51;100.00
76229;BME280;65021;53.174;18.160;2023-08-06T09:46:47;99269.56;;;19.51;100.00
76229;BME280;65021;53.174;18.160;2023-08-06T09:49:19;99262.88;;;19.54;100.00
76229;BME280;65021;53.174;18.160;2023-08-06T09:51:47;99254.09;;;19.60;100.00
76229;BME280;65021;53.174;18.160;2023-08-06T09:54:17;99257.41;;;19.55;100.00
76229;BME280;65021;53.174;18.160;2023-08-06T09:56:48;99244.94;;;19.47;100.00
76229;BME280;65021;53.174;18.160;2023-08-06T09:59:14;99237.58;;;19.50;100.00
76229;BME280;65021;53.174;18.160;2023-08-06T10:01:42;99247.62;;;19.50;100.00
76229;BME280;65021;53.174;18.160;2023-08-06T10:04:09;99246.14;;;19.49;100.00
76229;BME280;65021;53.174;18.160;2023-08-06T10:06:39;99239.38;;;19.51;100.00
76229;BME280;65021;53.174;18.160;2023-08-06T10:09:06;99225.86;;;19.51;100.00
76229;BME280;65021;53.174;18.160;2023-08-06T10:11:39;99212.09;;;19.61;100.00
76229;BME280;65021;53.174;18.160;2023-08-06T10:14:21;99218.54;;;19.72;100.00
76229;BME280;65021;53.174;18.160;2023-08-06T10:16:50;99213.73;;;19.68;100.00
76229;BME280;65021;53.174;18.160;2023-08-06T10:19:17;99209.19;;;19.55;100.00
76229;BME280;65021;53.174;18.160;2023-08-06T10:24:53;99217.83;;;19.32;100.00
76229;BME280;65021;53.174;18.160;2023-08-06T10:27:33;99214.34;;;19.31;100.00
76229;BME280;65021;53.174;18.160;2023-08-06T10:32:53;99201.45;;;19.43;100.00
76229;BME280;65021;53.174;18.160;2023-08-06T10:35:56;99202.19;;;19.43;100.00
76229;BME280;65021;53.174;18.160;2023-08-06T10:38:27;99192.09;;;19.44;100.00
76229;BME280;65021;53.174;18.160;2023-08-06T10:43:37;99179.97;;;19.55;100.00
76229;BME280;65021;53.174;18.160;2023-08-06T10:46:13;99170.98;;;19.56;100.00
76229;BME280;65021;53.174;18.160;2023-08-06T10:48:46;99173.44;;;19.64;100.00
76229;BME280;65021;53.174;18.160;2023-08-06T10:51:14;99169.56;;;19.59;100.00
76229;BME280;65021;53.174;18.160;2023-08-06T10:53:42;99163.86;;;19.58;100.00
76229;BME280;65021;53.174;18.160;2023-08-06T10:56:13;99152.93;;;19.69;100.00
76229;BME280;65021;53.174;18.160;2023-08-06T10:58:41;99151.70;;;19.85;100.00
76229;BME280;65021;53.174;18.160;2023-08-06T11:01:08;99137.78;;;19.95;100.00
76229;BME280;65021;53.174;18.160;2023-08-06T11:03:36;99138.85;;;19.99;100.00
76229;BME280;65021;53.174;18.160;2023-08-06T11:06:03;99144.67;;;19.91;100.00
76229;BME280;65021;53.174;18.160;2023-08-06T11:08:35;99133.00;;;19.83;100.00
76229;BME280;65021;53.174;18.160;2023-08-06T11:11:12;99123.73;;;19.85;100.00
76229;BME280;65021;53.174;18.160;2023-08-06T11:13:43;99123.33;;;19.82;100.00
76229;BME280;65021;53.174;18.160;2023-08-06T11:16:10;99118.20;;;19.75;100.00
76229;BME280;65021;53.174;18.160;2023-08-06T11:18:37;99118.88;;;19.67;100.00
76229;BME280;65021;53.174;18.160;2023-08-06T11:21:04;99121.41;;;19.60;100.00
76229;BME280;65021;53.174;18.160;2023-08-06T11:23:30;99118.02;;;19.57;100.00
76229;BME280;65021;53.174;18.160;2023-08-06T11:25:57;99110.16;;;19.53;100.00
76229;BME280;65021;53.174;18.160;2023-08-06T11:28:24;99107.73;;;19.55;100.00
76229;BME280;65021;53.174;18.160;2023-08-06T11:30:51;99100.20;;;19.58;100.00
76229;BME280;65021;53.174;18.160;2023-08-06T11:33:22;99093.88;;;19.66;100.00
76229;BME280;65021;53.174;18.160;2023-08-06T11:35:52;99089.17;;;19.70;100.00
76229;BME280;65021;53.174;18.160;2023-08-06T11:38:20;99082.50;;;19.77;100.00
76229;BME280;65021;53.174;18.160;2023-08-06T11:40:47;99072.73;;;19.92;100.00
76229;BME280;65021;53.174;18.160;2023-08-06T11:43:14;99057.35;;;20.10;100.00
76229;BME280;65021;53.174;18.160;2023-08-06T11:45:41;99056.70;;;20.27;100.00
76229;BME280;65021;53.174;18.160;2023-08-06T11:48:08;99050.35;;;20.22;100.00
76229;BME280;65021;53.174;18.160;2023-08-06T11:50:39;99049.91;;;20.19;100.00
76229;BME280;65021;53.174;18.160;2023-08-06T11:53:06;99046.15;;;20.15;100.00
76229;BME280;65021;53.174;18.160;2023-08-06T11:55:33;99041.77;;;20.17;100.00
76229;BME280;65021;53.174;18.160;2023-08-06T11:58:03;99045.63;;;20.35;100.00
76229;BME280;65021;53.174;18.160;2023-08-06T12:00:33;99032.58;;;20.42;100.00
76229;BME280;65021;53.174;18.160;2023-08-06T12:02:59;99025.54;;;20.44;100.00
76229;BME280;65021;53.174;18.160;2023-08-06T12:05:30;99022.30;;;20.46;100.00
76229;BME280;65021;53.174;18.160;2023-08-06T12:07:59;99014.05;;;20.53;100.00
76229;BME280;65021;53.174;18.160;2023-08-06T12:10:27;99014.91;;;20.55;100.00
76229;BME280;65021;53.174;18.160;2023-08-06T12:12:55;99023.02;;;20.53;100.00
76229;BME280;65021;53.174;18.160;2023-08-06T12:15:22;99024.10;;;20.49;100.00
76229;BME280;65021;53.174;18.160;2023-08-06T12:17:49;99029.92;;;20.42;100.00
76229;BME280;65021;53.174;18.160;2023-08-06T12:20:16;99029.50;;;20.32;100.00
76229;BME280;65021;53.174;18.160;2023-08-06T12:22:42;99030.24;;;20.28;100.00
76229;BME280;65021;53.174;18.160;2023-08-06T12:25:11;99029.21;;;20.26;100.00
76229;BME280;65021;53.174;18.160;2023-08-06T12:27:42;99026.08;;;20.26;100.00
76229;BME280;65021;53.174;18.160;2023-08-06T12:30:10;99022.42;;;20.25;100.00
76229;BME280;65021;53.174;18.160;2023-08-06T12:32:37;99023.16;;;20.22;100.00
76229;BME280;65021;53.174;18.160;2023-08-06T12:35:05;99015.27;;;20.20;100.00
76229;BME280;65021;53.174;18.160;2023-08-06T12:37:34;99010.14;;;20.20;100.00
76229;BME280;65021;53.174;18.160;2023-08-06T12:40:01;99009.96;;;20.18;100.00
76229;BME280;65021;53.174;18.160;2023-08-06T12:42:27;99010.67;;;20.14;100.00
76229;BME280;65021;53.174;18.160;2023-08-06T12:44:54;99011.85;;;20.11;100.00
76229;BME280;65021;53.174;18.160;2023-08-06T12:47:21;98995.08;;;20.16;100.00
76229;BME280;65021;53.174;18.160;2023-08-06T12:49:47;98987.99;;;20.25;100.00
76229;BME280;65021;53.174;18.160;2023-08-06T12:52:14;98987.80;;;20.27;100.00
76229;BME280;65021;53.174;18.160;2023-08-06T12:54:41;98982.76;;;20.33;100.00
76229;BME280;65021;53.174;18.160;2023-08-06T12:57:08;98982.77;;;20.38;100.00
76229;BME280;65021;53.174;18.160;2023-08-06T12:59:35;98983.38;;;20.39;100.00